createdAt,value
2023-04-18T00:00:37.965Z,63.22
2023-04-18T00:03:40.567Z,63.71
2023-04-18T00:06:42.982Z,63.63
2023-04-18T00:09:45.622Z,63.40
2023-04-18T00:12:48.065Z,63.37
2023-04-18T00:15:50.377Z,63.14
2023-04-18T00:18:53.795Z,63.45
2023-04-18T00:21:58.484Z,63.58
2023-04-18T00:25:00.923Z,63.81
2023-04-18T00:28:03.186Z,63.82
2023-04-18T00:31:05.574Z,64.47
2023-04-18T00:34:07.890Z,63.64
2023-04-18T00:37:10.234Z,64.04
2023-04-18T00:40:12.579Z,64.06
2023-04-18T00:43:15.133Z,63.72
2023-04-18T00:46:17.720Z,63.53
2023-04-18T00:49:20.555Z,63.06
2023-04-18T00:52:26.076Z,63.04
2023-04-18T00:55:29.092Z,63.05
2023-04-18T00:58:32.222Z,63.07
2023-04-18T01:01:34.520Z,62.43
2023-04-18T01:04:37.395Z,62.93
2023-04-18T01:07:42.600Z,63.08
2023-04-18T01:10:45.137Z,63.03
2023-04-18T01:14:05.137Z,63.09
2023-04-18T01:17:10.927Z,62.79
2023-04-18T01:20:13.816Z,62.09
2023-04-18T01:23:18.113Z,61.80
2023-04-18T01:26:20.481Z,62.09
2023-04-18T01:29:23.040Z,63.12
2023-04-18T01:32:25.397Z,61.95
2023-04-18T01:35:28.575Z,61.60
2023-04-18T01:38:33.200Z,61.16
2023-04-18T01:41:36.617Z,60.67
2023-04-18T01:44:38.869Z,60.90
2023-04-18T01:47:41.201Z,61.52
2023-04-18T01:50:47.042Z,61.46
2023-04-18T01:53:49.953Z,61.92
2023-04-18T01:56:52.052Z,61.54
2023-04-18T01:59:54.333Z,62.00
2023-04-18T02:02:59.111Z,61.88
2023-04-18T02:06:02.722Z,62.23
2023-04-18T02:09:05.324Z,61.95
2023-04-18T02:12:07.709Z,62.07
2023-04-18T02:15:10.683Z,62.17
2023-04-18T02:18:13.046Z,61.18
2023-04-18T02:21:15.378Z,61.65
2023-04-18T02:24:17.927Z,61.23
2023-04-18T02:27:20.214Z,61.77
2023-04-18T02:30:23.361Z,61.50
2023-04-18T02:33:25.666Z,62.02
2023-04-18T02:36:28.469Z,61.83
2023-04-18T02:39:31.609Z,62.30
2023-04-18T02:42:33.933Z,61.91
2023-04-18T02:45:37.294Z,62.06
2023-04-18T02:48:40.254Z,62.31
2023-04-18T02:51:43.643Z,61.35
2023-04-18T02:54:46.657Z,61.15
2023-04-18T02:57:53.247Z,61.31
2023-04-18T03:01:27.345Z,61.12
2023-04-18T03:04:49.912Z,60.29
2023-04-18T03:07:52.214Z,60.77
2023-04-18T03:10:56.381Z,60.80
2023-04-18T03:14:00.497Z,60.72
2023-04-18T03:17:09.464Z,60.69
2023-04-18T03:20:15.711Z,60.16
2023-04-18T03:23:18.059Z,61.35
2023-04-18T03:26:21.432Z,60.39
2023-04-18T03:29:23.661Z,60.96
2023-04-18T03:32:27.064Z,60.82
2023-04-18T03:35:29.461Z,61.37
2023-04-18T03:38:32.091Z,61.22
2023-04-18T03:41:34.378Z,61.12
2023-04-18T03:44:37.053Z,61.37
2023-04-18T03:47:40.024Z,61.09
2023-04-18T03:50:42.583Z,61.68
2023-04-18T03:53:46.051Z,62.69
2023-04-18T03:56:48.360Z,62.98
2023-04-18T03:59:51.187Z,63.11
2023-04-18T04:02:54.020Z,63.65
2023-04-18T04:05:56.579Z,63.75
2023-04-18T04:08:59.102Z,64.23
2023-04-18T04:12:03.915Z,63.41
2023-04-18T04:15:06.884Z,62.56
2023-04-18T04:18:10.148Z,62.23
2023-04-18T04:21:15.912Z,62.89
2023-04-18T04:24:23.488Z,63.26
2023-04-18T04:27:27.055Z,64.03
2023-04-18T04:30:31.817Z,63.50
2023-04-18T04:33:35.801Z,64.24
2023-04-18T04:36:43.154Z,64.46
2023-04-18T04:39:47.886Z,63.61
2023-04-18T04:43:22.526Z,63.51
2023-04-18T04:46:25.137Z,64.71
2023-04-18T04:49:27.478Z,64.91
2023-04-18T04:52:29.772Z,65.09
2023-04-18T04:55:32.875Z,64.53
2023-04-18T04:58:36.720Z,64.70
2023-04-18T05:01:57.435Z,64.63
2023-04-18T05:04:59.816Z,64.19
2023-04-18T05:08:02.582Z,64.99
2023-04-18T05:11:04.985Z,65.59
2023-04-18T05:14:07.596Z,65.99
2023-04-18T05:17:09.892Z,65.48
2023-04-18T05:20:12.299Z,65.54
2023-04-18T05:23:14.575Z,66.16
2023-04-18T05:26:17.548Z,65.52
2023-04-18T05:29:19.876Z,64.24
2023-04-18T05:32:22.325Z,64.23
2023-04-18T05:35:24.623Z,64.99
2023-04-18T05:38:26.928Z,64.58
2023-04-18T05:41:29.159Z,65.06
2023-04-18T05:44:31.411Z,64.39
2023-04-18T05:47:33.855Z,64.12
2023-04-18T05:50:36.178Z,64.01
2023-04-18T05:53:38.519Z,63.68
2023-04-18T05:56:41.065Z,63.61
2023-04-18T05:59:43.610Z,62.71
2023-04-18T06:02:46.349Z,63.10
2023-04-18T06:05:48.775Z,62.77
2023-04-18T06:08:52.187Z,62.23
2023-04-18T06:11:54.460Z,60.94
2023-04-18T06:14:56.754Z,60.79
2023-04-18T06:17:59.148Z,60.32
2023-04-18T06:21:01.554Z,60.55
2023-04-18T06:24:03.999Z,60.59
2023-04-18T06:27:09.319Z,59.75
2023-04-18T06:30:15.138Z,60.08
2023-04-18T06:33:17.367Z,59.42
2023-04-18T06:36:19.956Z,59.12
2023-04-18T06:39:22.221Z,59.14
2023-04-18T06:42:24.633Z,58.16
2023-04-18T06:45:32.995Z,57.34
2023-04-18T06:48:35.315Z,55.47
2023-04-18T06:51:37.659Z,50.80
2023-04-18T06:54:39.964Z,47.60
2023-04-18T06:57:42.807Z,45.52
2023-04-18T07:00:47.652Z,42.10
2023-04-18T07:03:50.015Z,44.17
2023-04-18T07:06:52.835Z,45.56
2023-04-18T07:09:55.111Z,46.41
2023-04-18T07:12:57.322Z,47.40
2023-04-18T07:15:59.619Z,48.13
2023-04-18T07:19:01.869Z,47.32
2023-04-18T07:22:04.159Z,46.70
2023-04-18T07:25:06.945Z,46.87
2023-04-18T07:28:09.053Z,47.20
2023-04-18T07:31:11.491Z,47.81
2023-04-18T07:34:14.562Z,47.89
2023-04-18T07:37:18.410Z,48.83
2023-04-18T07:40:21.247Z,47.86
2023-04-18T07:43:23.455Z,48.88
2023-04-18T07:46:25.813Z,47.66
2023-04-18T07:49:28.099Z,48.39
2023-04-18T07:52:30.340Z,49.13
2023-04-18T07:55:32.567Z,50.70
2023-04-18T07:58:35.169Z,51.08
2023-04-18T08:01:37.464Z,50.41
2023-04-18T08:04:40.062Z,51.91
2023-04-18T08:07:42.486Z,51.01
2023-04-18T08:10:44.950Z,50.07
2023-04-18T08:13:47.254Z,48.35
2023-04-18T08:16:49.678Z,45.29
2023-04-18T08:19:52.084Z,44.36
2023-04-18T08:23:06.008Z,45.16
2023-04-18T08:26:11.284Z,45.75
2023-04-18T08:29:13.772Z,46.33
2023-04-18T08:32:16.140Z,45.69
2023-04-18T08:35:18.434Z,46.80
2023-04-18T08:38:20.716Z,46.45
2023-04-18T08:41:24.155Z,46.61
2023-04-18T08:44:29.733Z,47.24
2023-04-18T08:47:32.064Z,47.27
2023-04-18T08:50:34.297Z,46.33
2023-04-18T08:53:36.616Z,46.75
2023-04-18T08:56:38.908Z,46.83
2023-04-18T08:59:43.131Z,45.89
2023-04-18T09:02:46.951Z,45.10
2023-04-18T09:06:08.415Z,44.12
2023-04-18T09:09:10.722Z,43.53
2023-04-18T09:12:14.969Z,36.49
2023-04-18T09:15:20.502Z,36.41
2023-04-18T09:18:25.147Z,35.01
2023-04-18T09:21:28.025Z,35.36
2023-04-18T09:24:31.973Z,38.58
2023-04-18T09:27:34.954Z,39.67
2023-04-18T09:30:40.161Z,38.48
2023-04-18T09:33:54.186Z,37.86
2023-04-18T09:37:10.153Z,39.38
2023-04-18T09:40:19.643Z,39.02
2023-04-18T09:43:22.042Z,37.75
2023-04-18T09:46:24.403Z,37.63
2023-04-18T09:49:27.252Z,38.14
2023-04-18T09:52:32.289Z,39.58
2023-04-18T09:55:35.202Z,41.01
2023-04-18T09:58:41.281Z,41.65
2023-04-18T10:01:47.917Z,41.31
2023-04-18T10:04:53.553Z,41.57
2023-04-18T10:07:56.185Z,41.95
2023-04-18T10:10:58.766Z,41.74
2023-04-18T10:14:07.235Z,41.17
2023-04-18T10:17:10.251Z,41.25
2023-04-18T10:20:18.022Z,42.08
2023-04-18T10:23:34.554Z,41.73
2023-04-18T10:26:47.198Z,42.04
2023-04-18T10:29:53.916Z,41.53
2023-04-18T10:32:56.204Z,40.77
2023-04-18T10:36:01.489Z,40.84
2023-04-18T10:39:23.342Z,39.74
2023-04-18T10:42:47.077Z,39.52
2023-04-18T10:46:23.791Z,39.89
2023-04-18T10:49:34.124Z,38.87
2023-04-18T10:52:36.467Z,35.45
2023-04-18T10:55:43.289Z,36.74
2023-04-18T10:58:51.130Z,37.82
2023-04-18T11:02:22.995Z,37.63
2023-04-18T11:05:29.245Z,36.52
2023-04-18T11:08:31.536Z,35.33
2023-04-18T11:11:33.848Z,35.87
2023-04-18T11:14:48.785Z,34.87
2023-04-18T11:18:01.274Z,34.84
2023-04-18T11:21:03.860Z,34.39
2023-04-18T11:24:06.408Z,34.20
2023-04-18T11:27:09.848Z,33.74
2023-04-18T11:30:13.243Z,34.08
2023-04-18T11:33:16.716Z,33.01
2023-04-18T11:36:19.212Z,32.92
2023-04-18T11:39:22.238Z,34.32
2023-04-18T11:42:28.588Z,34.48
2023-04-18T11:45:31.256Z,34.59
2023-04-18T11:48:36.791Z,33.57
2023-04-18T11:51:39.184Z,34.16
2023-04-18T11:54:43.014Z,33.09
2023-04-18T11:57:58.570Z,33.56
2023-04-18T12:01:18.894Z,32.45
2023-04-18T12:04:21.541Z,35.48
2023-04-18T12:07:44.402Z,36.36
2023-04-18T12:10:54.051Z,37.09
2023-04-18T12:13:56.899Z,38.84
2023-04-18T12:16:59.217Z,38.65
2023-04-18T12:20:03.736Z,38.34
2023-04-18T12:23:06.555Z,38.82
2023-04-18T12:26:11.382Z,38.96
2023-04-18T12:29:13.934Z,37.99
2023-04-18T12:32:17.085Z,37.75
2023-04-18T12:35:20.842Z,37.24
2023-04-18T12:38:23.653Z,36.69
2023-04-18T12:41:25.976Z,36.09
2023-04-18T12:44:28.515Z,36.47
2023-04-18T12:47:31.145Z,36.67
2023-04-18T12:50:33.548Z,36.32
2023-04-18T12:53:35.782Z,36.27
2023-04-18T12:56:38.018Z,36.11
2023-04-18T12:59:40.350Z,36.09
2023-04-18T13:02:44.290Z,36.02
2023-04-18T13:05:46.661Z,34.57
2023-04-18T13:08:48.926Z,31.97
2023-04-18T13:11:51.135Z,31.18
2023-04-18T13:14:53.352Z,31.39
2023-04-18T13:18:04.361Z,32.43
2023-04-18T13:21:06.840Z,32.38
2023-04-18T13:24:09.120Z,31.79
2023-04-18T13:27:11.976Z,31.47
2023-04-18T13:30:14.218Z,30.95
2023-04-18T13:33:16.999Z,31.78
2023-04-18T13:36:19.109Z,31.19
2023-04-18T13:39:22.818Z,30.87
2023-04-18T13:42:25.069Z,31.14
2023-04-18T13:45:27.459Z,30.83
2023-04-18T13:48:29.756Z,31.14
2023-04-18T13:51:32.118Z,30.55
2023-04-18T13:54:34.600Z,30.76
2023-04-18T13:57:37.367Z,31.10
2023-04-18T14:00:39.606Z,29.84
2023-04-18T14:03:43.671Z,28.96
2023-04-18T14:06:48.460Z,28.58
2023-04-18T14:09:53.310Z,28.15
2023-04-18T14:12:56.242Z,28.41
2023-04-18T14:15:58.900Z,28.38
2023-04-18T14:19:01.698Z,28.52
2023-04-18T14:22:03.831Z,28.16
2023-04-18T14:25:06.775Z,27.49
2023-04-18T14:28:11.252Z,26.36
2023-04-18T14:31:14.392Z,26.49
2023-04-18T14:34:16.632Z,25.71
2023-04-18T14:37:18.907Z,26.61
2023-04-18T14:40:22.569Z,27.93
2023-04-18T14:43:25.701Z,27.43
2023-04-18T14:46:28.379Z,27.01
2023-04-18T14:49:30.860Z,27.17
2023-04-18T14:52:33.100Z,27.30
2023-04-18T14:55:35.454Z,27.33
2023-04-18T14:58:37.761Z,27.98
2023-04-18T15:01:41.614Z,28.15
2023-04-18T15:04:44.063Z,28.09
2023-04-18T15:07:47.714Z,28.78
2023-04-18T15:10:52.809Z,28.90
2023-04-18T15:13:55.072Z,29.23
2023-04-18T15:16:57.746Z,29.51
2023-04-18T15:20:00.190Z,29.10
2023-04-18T15:23:03.090Z,28.35
2023-04-18T15:26:05.413Z,27.27
2023-04-18T15:29:07.976Z,27.20
2023-04-18T15:32:10.299Z,28.38
2023-04-18T15:35:12.942Z,28.30
2023-04-18T15:38:15.189Z,28.70
2023-04-18T15:41:17.410Z,29.05
2023-04-18T15:44:19.647Z,29.35
2023-04-18T15:47:21.970Z,30.21
2023-04-18T15:50:24.435Z,30.54
2023-04-18T15:53:26.979Z,30.93
2023-04-18T15:56:32.466Z,30.42
2023-04-18T15:59:36.224Z,30.41
2023-04-18T16:02:38.669Z,31.07
2023-04-18T16:05:41.473Z,31.01
2023-04-18T16:08:43.756Z,30.97
2023-04-18T16:11:46.050Z,31.18
2023-04-18T16:14:48.312Z,30.81
2023-04-18T16:17:50.670Z,31.59
2023-04-18T16:20:52.947Z,30.92
2023-04-18T16:23:55.431Z,31.48
2023-04-18T16:26:58.558Z,30.40
2023-04-18T16:30:01.180Z,30.41
2023-04-18T16:33:03.952Z,30.53
2023-04-18T16:36:06.968Z,30.59
2023-04-18T16:39:09.198Z,30.90
2023-04-18T16:42:13.351Z,31.43
2023-04-18T16:45:17.346Z,30.94
2023-04-18T16:48:19.608Z,30.26
2023-04-18T16:51:22.038Z,30.66
2023-04-18T16:54:24.283Z,30.52
2023-04-18T16:57:26.504Z,29.82
2023-04-18T17:00:29.371Z,30.03
2023-04-18T17:03:31.808Z,29.78
2023-04-18T17:06:34.376Z,29.97
2023-04-18T17:09:36.735Z,30.55
2023-04-18T17:12:39.011Z,30.79
2023-04-18T17:15:41.378Z,30.20
2023-04-18T17:18:43.698Z,31.02
2023-04-18T17:21:46.384Z,31.54
2023-04-18T17:24:48.676Z,31.02
2023-04-18T17:27:51.107Z,31.47
2023-04-18T17:30:53.420Z,31.00
2023-04-18T17:33:56.329Z,31.20
2023-04-18T17:36:58.663Z,30.99
2023-04-18T17:40:03.625Z,30.71
2023-04-18T17:43:06.175Z,30.78
2023-04-18T17:46:08.459Z,31.40
2023-04-18T17:49:11.408Z,30.71
2023-04-18T17:52:13.766Z,31.07
2023-04-18T17:55:16.060Z,31.17
2023-04-18T17:58:19.566Z,31.00
2023-04-18T18:01:22.449Z,31.19
2023-04-18T18:04:26.461Z,30.92
2023-04-18T18:07:31.009Z,31.16
2023-04-18T18:10:33.943Z,31.66
2023-04-18T18:13:36.733Z,31.96
2023-04-18T18:16:39.231Z,32.09
2023-04-18T18:19:41.523Z,32.57
2023-04-18T18:22:44.184Z,32.68
2023-04-18T18:25:46.524Z,33.22
2023-04-18T18:28:48.816Z,32.49
2023-04-18T18:31:51.177Z,33.47
2023-04-18T18:34:53.616Z,33.81
2023-04-18T18:37:56.132Z,33.60
2023-04-18T18:40:59.348Z,34.66
2023-04-18T18:44:02.829Z,35.19
2023-04-18T18:47:05.865Z,35.73
2023-04-18T18:50:08.619Z,35.30
2023-04-18T18:53:10.947Z,35.50
2023-04-18T18:56:13.281Z,35.65
2023-04-18T18:59:16.007Z,35.13
2023-04-18T19:02:18.661Z,35.84
2023-04-18T19:05:21.157Z,35.65
2023-04-18T19:08:23.423Z,35.38
2023-04-18T19:11:26.756Z,35.37
2023-04-18T19:14:28.977Z,35.04
2023-04-18T19:17:31.472Z,35.42
2023-04-18T19:20:33.795Z,35.54
2023-04-18T19:23:38.900Z,35.70
2023-04-18T19:26:45.093Z,34.93
2023-04-18T19:29:47.379Z,33.79
2023-04-18T19:32:49.694Z,34.17
2023-04-18T19:35:52.185Z,33.98
2023-04-18T19:38:55.549Z,34.01
2023-04-18T19:41:57.789Z,33.68
2023-04-18T19:45:00.341Z,34.04
2023-04-18T19:48:02.666Z,34.31
2023-04-18T19:51:05.035Z,35.00
2023-04-18T19:54:07.473Z,34.58
2023-04-18T19:57:09.831Z,34.91
2023-04-18T20:00:13.303Z,34.05
2023-04-18T20:03:17.308Z,34.37
2023-04-18T20:06:20.237Z,34.37
2023-04-18T20:09:22.617Z,34.51
2023-04-18T20:12:27.164Z,33.91
2023-04-18T20:15:30.768Z,33.45
2023-04-18T20:18:35.809Z,34.34
2023-04-18T20:21:38.062Z,34.19
2023-04-18T20:24:40.382Z,34.77
2023-04-18T20:27:42.596Z,34.05
2023-04-18T20:30:47.589Z,34.11
2023-04-18T20:33:52.869Z,34.03
2023-04-18T20:36:55.549Z,34.32
2023-04-18T20:39:58.787Z,34.33
2023-04-18T20:43:03.042Z,34.48
2023-04-18T20:46:06.931Z,34.83
2023-04-18T20:49:09.819Z,34.86
2023-04-18T20:52:13.380Z,34.05
2023-04-18T20:55:18.259Z,34.68
2023-04-18T20:58:20.751Z,34.81
2023-04-18T21:01:23.332Z,35.62
2023-04-18T21:04:25.893Z,35.57
2023-04-18T21:07:29.671Z,36.14
2023-04-18T21:10:32.021Z,35.44
2023-04-18T21:13:34.763Z,35.90
2023-04-18T21:16:39.399Z,34.94
2023-04-18T21:19:41.822Z,35.57
2023-04-18T21:22:44.115Z,34.43
2023-04-18T21:25:46.343Z,34.68
2023-04-18T21:28:56.481Z,34.92
2023-04-18T21:31:58.874Z,34.71
2023-04-18T21:35:01.573Z,35.51
2023-04-18T21:38:03.807Z,35.14
2023-04-18T21:41:06.067Z,35.99
2023-04-18T21:44:08.327Z,36.22
2023-04-18T21:47:10.674Z,35.61
2023-04-18T21:50:13.157Z,36.60
2023-04-18T21:53:15.424Z,37.05
2023-04-18T21:56:17.679Z,37.32
2023-04-18T21:59:20.003Z,37.23
2023-04-18T22:02:22.383Z,37.60
2023-04-18T22:05:26.325Z,37.42
2023-04-18T22:08:29.574Z,36.81
2023-04-18T22:11:32.271Z,36.83
2023-04-18T22:14:34.591Z,36.86
2023-04-18T22:17:38.014Z,37.05
2023-04-18T22:20:44.101Z,36.71
2023-04-18T22:23:46.336Z,37.52
2023-04-18T22:26:48.783Z,36.89
2023-04-18T22:29:51.086Z,37.35
2023-04-18T22:32:53.327Z,36.89
2023-04-18T22:35:55.778Z,37.09
2023-04-18T22:38:58.077Z,36.90
2023-04-18T22:42:00.389Z,36.96
2023-04-18T22:45:02.734Z,37.14
2023-04-18T22:48:05.427Z,37.81
2023-04-18T22:51:07.658Z,37.35
2023-04-18T22:54:09.920Z,37.04
2023-04-18T22:57:12.169Z,36.79
2023-04-18T23:00:14.777Z,36.46
2023-04-18T23:03:17.137Z,36.96
2023-04-18T23:06:19.533Z,36.98
2023-04-18T23:09:21.995Z,36.55
2023-04-18T23:12:24.525Z,35.89
2023-04-18T23:15:27.034Z,36.78
2023-04-18T23:18:30.049Z,36.84
2023-04-18T23:21:32.468Z,36.00
2023-04-18T23:24:34.702Z,36.50
2023-04-18T23:27:36.928Z,36.00
2023-04-18T23:30:39.610Z,36.58
2023-04-18T23:33:41.843Z,35.94
2023-04-18T23:36:44.124Z,35.18
2023-04-18T23:39:46.383Z,35.89
2023-04-18T23:42:48.646Z,35.70
2023-04-18T23:45:50.973Z,35.28
2023-04-18T23:48:53.213Z,35.25
2023-04-18T23:51:55.458Z,35.28
2023-04-18T23:55:01.455Z,35.60
2023-04-18T23:58:03.728Z,35.09
